sensor_id;sensor_type;location;lat;lon;timestamp;P1;durP1;ratioP1;P2;durP2;ratioP2
23304;SDS011;11821;51.456;8.844;2024-02-28T00:02:18;35.03;;;15.60;;
23304;SDS011;11821;51.456;8.844;2024-02-28T00:04:44;33.00;;;14.93;;
23304;SDS011;11821;51.456;8.844;2024-02-28T00:07:11;40.60;;;14.82;;
23304;SDS011;11821;51.456;8.844;2024-02-28T00:09:37;38.13;;;15.35;;
23304;SDS011;11821;51.456;8.844;2024-02-28T00:12:04;33.45;;;16.35;;
23304;SDS011;11821;51.456;8.844;2024-02-28T00:14:31;81.03;;;16.65;;
23304;SDS011;11821;51.456;8.844;2024-02-28T00:16:57;85.05;;;18.50;;
23304;SDS011;11821;51.456;8.844;2024-02-28T00:19:24;99.82;;;16.58;;
23304;SDS011;11821;51.456;8.844;2024-02-28T00:21:50;133.05;;;18.73;;
23304;SDS011;11821;51.456;8.844;2024-02-28T00:24:17;120.55;;;18.83;;
23304;SDS011;11821;51.456;8.844;2024-02-28T00:26:43;104.18;;;18.13;;
23304;SDS011;11821;51.456;8.844;2024-02-28T00:29:10;77.40;;;18.48;;
23304;SDS011;11821;51.456;8.844;2024-02-28T00:31:38;64.10;;;18.00;;
23304;SDS011;11821;51.456;8.844;2024-02-28T00:34:04;50.10;;;16.48;;
23304;SDS011;11821;51.456;8.844;2024-02-28T00:36:34;66.88;;;17.13;;
23304;SDS011;11821;51.456;8.844;2024-02-28T00:39:00;43.53;;;17.23;;
23304;SDS011;11821;51.456;8.844;2024-02-28T00:41:27;141.60;;;18.23;;
23304;SDS011;11821;51.456;8.844;2024-02-28T00:43:53;53.33;;;17.95;;
23304;SDS011;11821;51.456;8.844;2024-02-28T00:46:20;39.17;;;16.98;;
23304;SDS011;11821;51.456;8.844;2024-02-28T00:48:46;63.22;;;17.45;;
23304;SDS011;11821;51.456;8.844;2024-02-28T00:51:13;61.80;;;16.45;;
23304;SDS011;11821;51.456;8.844;2024-02-28T00:53:39;63.85;;;18.48;;
23304;SDS011;11821;51.456;8.844;2024-02-28T00:56:08;50.65;;;17.10;;
23304;SDS011;11821;51.456;8.844;2024-02-28T00:58:35;33.80;;;15.60;;
23304;SDS011;11821;51.456;8.844;2024-02-28T01:01:01;31.35;;;14.90;;
23304;SDS011;11821;51.456;8.844;2024-02-28T01:03:28;31.00;;;15.13;;
23304;SDS011;11821;51.456;8.844;2024-02-28T01:05:54;35.15;;;15.63;;
23304;SDS011;11821;51.456;8.844;2024-02-28T01:08:21;32.35;;;15.48;;
23304;SDS011;11821;51.456;8.844;2024-02-28T01:10:47;37.17;;;16.52;;
23304;SDS011;11821;51.456;8.844;2024-02-28T01:13:14;36.58;;;16.27;;
23304;SDS011;11821;51.456;8.844;2024-02-28T01:15:41;27.58;;;14.43;;
23304;SDS011;11821;51.456;8.844;2024-02-28T01:18:07;33.47;;;15.77;;
23304;SDS011;11821;51.456;8.844;2024-02-28T01:20:34;31.08;;;15.57;;
23304;SDS011;11821;51.456;8.844;2024-02-28T01:23:00;34.50;;;16.08;;
23304;SDS011;11821;51.456;8.844;2024-02-28T01:25:27;34.60;;;14.57;;
23304;SDS011;11821;51.456;8.844;2024-02-28T01:27:55;32.20;;;14.90;;
23304;SDS011;11821;51.456;8.844;2024-02-28T01:30:22;33.95;;;16.00;;
23304;SDS011;11821;51.456;8.844;2024-02-28T01:32:48;36.03;;;15.70;;
23304;SDS011;11821;51.456;8.844;2024-02-28T01:35:15;38.63;;;16.00;;
23304;SDS011;11821;51.456;8.844;2024-02-28T01:37:41;36.83;;;15.27;;
23304;SDS011;11821;51.456;8.844;2024-02-28T01:40:08;26.90;;;14.35;;
23304;SDS011;11821;51.456;8.844;2024-02-28T01:42:35;26.77;;;14.35;;
23304;SDS011;11821;51.456;8.844;2024-02-28T01:45:02;31.13;;;14.48;;
23304;SDS011;11821;51.456;8.844;2024-02-28T01:47:29;34.65;;;16.35;;
23304;SDS011;11821;51.456;8.844;2024-02-28T01:49:56;32.17;;;16.05;;
23304;SDS011;11821;51.456;8.844;2024-02-28T01:52:22;25.35;;;14.25;;
23304;SDS011;11821;51.456;8.844;2024-02-28T01:54:49;26.77;;;13.50;;
23304;SDS011;11821;51.456;8.844;2024-02-28T01:57:15;25.38;;;13.43;;
23304;SDS011;11821;51.456;8.844;2024-02-28T01:59:42;29.63;;;16.05;;
23304;SDS011;11821;51.456;8.844;2024-02-28T02:02:09;28.25;;;16.20;;
23304;SDS011;11821;51.456;8.844;2024-02-28T02:04:35;29.35;;;13.98;;
23304;SDS011;11821;51.456;8.844;2024-02-28T02:07:02;31.80;;;15.98;;
23304;SDS011;11821;51.456;8.844;2024-02-28T02:09:28;28.67;;;15.23;;
23304;SDS011;11821;51.456;8.844;2024-02-28T02:11:55;33.17;;;16.23;;
23304;SDS011;11821;51.456;8.844;2024-02-28T02:14:21;33.22;;;20.50;;
23304;SDS011;11821;51.456;8.844;2024-02-28T02:16:48;37.53;;;19.48;;
23304;SDS011;11821;51.456;8.844;2024-02-28T02:19:14;26.70;;;17.27;;
23304;SDS011;11821;51.456;8.844;2024-02-28T02:21:42;46.67;;;26.40;;
23304;SDS011;11821;51.456;8.844;2024-02-28T02:24:11;52.78;;;29.77;;
23304;SDS011;11821;51.456;8.844;2024-02-28T02:26:37;51.25;;;32.90;;
23304;SDS011;11821;51.456;8.844;2024-02-28T02:29:04;60.50;;;35.47;;
23304;SDS011;11821;51.456;8.844;2024-02-28T02:31:30;59.28;;;37.30;;
23304;SDS011;11821;51.456;8.844;2024-02-28T02:33:57;72.70;;;42.25;;
23304;SDS011;11821;51.456;8.844;2024-02-28T02:36:23;73.43;;;42.30;;
23304;SDS011;11821;51.456;8.844;2024-02-28T02:38:50;68.82;;;39.78;;
23304;SDS011;11821;51.456;8.844;2024-02-28T02:41:16;30.73;;;19.58;;
23304;SDS011;11821;51.456;8.844;2024-02-28T02:43:43;38.90;;;22.17;;
23304;SDS011;11821;51.456;8.844;2024-02-28T02:46:09;36.72;;;20.88;;
23304;SDS011;11821;51.456;8.844;2024-02-28T02:48:36;37.88;;;23.42;;
23304;SDS011;11821;51.456;8.844;2024-02-28T02:51:02;41.35;;;25.90;;
23304;SDS011;11821;51.456;8.844;2024-02-28T02:53:29;39.38;;;23.38;;
23304;SDS011;11821;51.456;8.844;2024-02-28T02:55:55;45.78;;;32.35;;
23304;SDS011;11821;51.456;8.844;2024-02-28T02:58:22;105.25;;;50.83;;
23304;SDS011;11821;51.456;8.844;2024-02-28T03:00:48;137.52;;;54.47;;
23304;SDS011;11821;51.456;8.844;2024-02-28T03:03:15;260.73;;;69.97;;
23304;SDS011;11821;51.456;8.844;2024-02-28T03:05:41;284.30;;;71.75;;
23304;SDS011;11821;51.456;8.844;2024-02-28T03:08:08;257.55;;;69.60;;
23304;SDS011;11821;51.456;8.844;2024-02-28T03:10:35;231.90;;;65.82;;
23304;SDS011;11821;51.456;8.844;2024-02-28T03:13:01;237.15;;;68.22;;
23304;SDS011;11821;51.456;8.844;2024-02-28T03:15:28;213.80;;;65.55;;
23304;SDS011;11821;51.456;8.844;2024-02-28T03:17:54;208.63;;;63.25;;
23304;SDS011;11821;51.456;8.844;2024-02-28T03:20:21;231.43;;;65.72;;
23304;SDS011;11821;51.456;8.844;2024-02-28T03:22:48;207.82;;;64.47;;
23304;SDS011;11821;51.456;8.844;2024-02-28T03:25:14;195.93;;;61.83;;
23304;SDS011;11821;51.456;8.844;2024-02-28T03:27:41;186.10;;;59.95;;
23304;SDS011;11821;51.456;8.844;2024-02-28T03:30:08;189.95;;;62.97;;
23304;SDS011;11821;51.456;8.844;2024-02-28T03:32:34;171.27;;;59.60;;
23304;SDS011;11821;51.456;8.844;2024-02-28T03:35:01;173.40;;;59.97;;
23304;SDS011;11821;51.456;8.844;2024-02-28T03:37:29;167.80;;;56.00;;
23304;SDS011;11821;51.456;8.844;2024-02-28T03:39:56;163.65;;;58.08;;
23304;SDS011;11821;51.456;8.844;2024-02-28T03:42:23;169.02;;;57.55;;
23304;SDS011;11821;51.456;8.844;2024-02-28T03:44:49;169.48;;;57.28;;
23304;SDS011;11821;51.456;8.844;2024-02-28T03:47:16;168.63;;;59.60;;
23304;SDS011;11821;51.456;8.844;2024-02-28T03:49:42;171.27;;;58.33;;
23304;SDS011;11821;51.456;8.844;2024-02-28T03:52:09;159.27;;;55.35;;
23304;SDS011;11821;51.456;8.844;2024-02-28T03:54:36;193.95;;;61.70;;
23304;SDS011;11821;51.456;8.844;2024-02-28T03:57:02;201.00;;;60.47;;
23304;SDS011;11821;51.456;8.844;2024-02-28T03:59:29;208.38;;;60.85;;
23304;SDS011;11821;51.456;8.844;2024-02-28T04:01:55;197.13;;;58.92;;
23304;SDS011;11821;51.456;8.844;2024-02-28T04:04:22;192.25;;;59.35;;
23304;SDS011;11821;51.456;8.844;2024-02-28T04:06:48;165.23;;;61.50;;
23304;SDS011;11821;51.456;8.844;2024-02-28T04:09:15;148.93;;;55.88;;
23304;SDS011;11821;51.456;8.844;2024-02-28T04:11:41;158.60;;;55.38;;
23304;SDS011;11821;51.456;8.844;2024-02-28T04:14:08;143.10;;;53.05;;
23304;SDS011;11821;51.456;8.844;2024-02-28T04:16:40;119.57;;;50.53;;
23304;SDS011;11821;51.456;8.844;2024-02-28T04:19:07;107.38;;;47.47;;
23304;SDS011;11821;51.456;8.844;2024-02-28T04:21:33;108.60;;;46.75;;
23304;SDS011;11821;51.456;8.844;2024-02-28T04:24:00;98.75;;;45.92;;
23304;SDS011;11821;51.456;8.844;2024-02-28T04:26:26;132.25;;;51.08;;
23304;SDS011;11821;51.456;8.844;2024-02-28T04:28:53;139.55;;;54.38;;
23304;SDS011;11821;51.456;8.844;2024-02-28T04:31:19;132.48;;;49.75;;
23304;SDS011;11821;51.456;8.844;2024-02-28T04:33:46;156.88;;;54.15;;
23304;SDS011;11821;51.456;8.844;2024-02-28T04:36:12;152.45;;;52.63;;
23304;SDS011;11821;51.456;8.844;2024-02-28T04:38:40;152.70;;;54.92;;
23304;SDS011;11821;51.456;8.844;2024-02-28T04:41:06;145.43;;;52.55;;
23304;SDS011;11821;51.456;8.844;2024-02-28T04:43:33;141.10;;;52.55;;
23304;SDS011;11821;51.456;8.844;2024-02-28T04:46:00;124.00;;;49.10;;
23304;SDS011;11821;51.456;8.844;2024-02-28T04:48:27;134.57;;;51.38;;
23304;SDS011;11821;51.456;8.844;2024-02-28T04:50:53;137.68;;;51.78;;
23304;SDS011;11821;51.456;8.844;2024-02-28T04:53:20;115.90;;;48.80;;
23304;SDS011;11821;51.456;8.844;2024-02-28T04:55:46;101.78;;;44.50;;
23304;SDS011;11821;51.456;8.844;2024-02-28T04:58:13;66.57;;;36.80;;
23304;SDS011;11821;51.456;8.844;2024-02-28T05:00:39;50.50;;;28.77;;
23304;SDS011;11821;51.456;8.844;2024-02-28T05:03:06;65.28;;;37.10;;
23304;SDS011;11821;51.456;8.844;2024-02-28T05:05:32;121.57;;;49.80;;
23304;SDS011;11821;51.456;8.844;2024-02-28T05:07:59;129.00;;;49.90;;
23304;SDS011;11821;51.456;8.844;2024-02-28T05:10:25;142.35;;;52.65;;
23304;SDS011;11821;51.456;8.844;2024-02-28T05:12:52;153.23;;;54.30;;
23304;SDS011;11821;51.456;8.844;2024-02-28T05:15:19;157.48;;;54.58;;
23304;SDS011;11821;51.456;8.844;2024-02-28T05:17:45;113.78;;;47.97;;
23304;SDS011;11821;51.456;8.844;2024-02-28T05:20:12;104.38;;;45.47;;
23304;SDS011;11821;51.456;8.844;2024-02-28T05:22:40;113.95;;;46.85;;
23304;SDS011;11821;51.456;8.844;2024-02-28T05:25:08;119.22;;;49.38;;
23304;SDS011;11821;51.456;8.844;2024-02-28T05:27:34;109.10;;;45.53;;
23304;SDS011;11821;51.456;8.844;2024-02-28T05:30:01;119.15;;;48.45;;
23304;SDS011;11821;51.456;8.844;2024-02-28T05:32:34;124.15;;;49.45;;
23304;SDS011;11821;51.456;8.844;2024-02-28T05:35:00;137.20;;;50.70;;
23304;SDS011;11821;51.456;8.844;2024-02-28T05:37:27;162.57;;;54.67;;
23304;SDS011;11821;51.456;8.844;2024-02-28T05:39:53;159.32;;;54.03;;
23304;SDS011;11821;51.456;8.844;2024-02-28T05:42:20;174.43;;;57.40;;
23304;SDS011;11821;51.456;8.844;2024-02-28T05:44:49;159.45;;;52.78;;
23304;SDS011;11821;51.456;8.844;2024-02-28T05:47:16;157.68;;;54.65;;
23304;SDS011;11821;51.456;8.844;2024-02-28T05:56:19;167.40;;;53.60;;
23304;SDS011;11821;51.456;8.844;2024-02-28T05:58:46;161.55;;;54.63;;
23304;SDS011;11821;51.456;8.844;2024-02-28T06:01:14;160.00;;;57.88;;
23304;SDS011;11821;51.456;8.844;2024-02-28T06:03:42;154.57;;;55.20;;
23304;SDS011;11821;51.456;8.844;2024-02-28T06:06:09;164.00;;;57.13;;
23304;SDS011;11821;51.456;8.844;2024-02-28T06:08:40;144.43;;;50.78;;
23304;SDS011;11821;51.456;8.844;2024-02-28T06:11:07;146.15;;;56.25;;
23304;SDS011;11821;51.456;8.844;2024-02-28T06:13:33;166.18;;;54.30;;
23304;SDS011;11821;51.456;8.844;2024-02-28T06:16:00;144.80;;;50.65;;
23304;SDS011;11821;51.456;8.844;2024-02-28T06:18:27;124.50;;;49.45;;
23304;SDS011;11821;51.456;8.844;2024-02-28T06:20:54;130.35;;;52.72;;
23304;SDS011;11821;51.456;8.844;2024-02-28T06:23:21;136.48;;;53.05;;
23304;SDS011;11821;51.456;8.844;2024-02-28T06:25:48;137.10;;;52.75;;
23304;SDS011;11821;51.456;8.844;2024-02-28T06:28:15;99.30;;;45.38;;
23304;SDS011;11821;51.456;8.844;2024-02-28T06:30:42;78.53;;;39.22;;
23304;SDS011;11821;51.456;8.844;2024-02-28T06:33:12;74.90;;;39.45;;
23304;SDS011;11821;51.456;8.844;2024-02-28T06:35:38;90.72;;;43.38;;
23304;SDS011;11821;51.456;8.844;2024-02-28T06:38:05;88.78;;;44.10;;
23304;SDS011;11821;51.456;8.844;2024-02-28T06:40:31;85.50;;;41.80;;
23304;SDS011;11821;51.456;8.844;2024-02-28T06:42:58;83.07;;;43.88;;
23304;SDS011;11821;51.456;8.844;2024-02-28T06:45:24;96.18;;;47.25;;
23304;SDS011;11821;51.456;8.844;2024-02-28T06:47:51;95.00;;;47.22;;
23304;SDS011;11821;51.456;8.844;2024-02-28T06:50:18;82.60;;;41.75;;
23304;SDS011;11821;51.456;8.844;2024-02-28T06:52:44;98.38;;;46.65;;
23304;SDS011;11821;51.456;8.844;2024-02-28T06:55:11;82.38;;;42.38;;
23304;SDS011;11821;51.456;8.844;2024-02-28T06:57:40;89.65;;;46.03;;
23304;SDS011;11821;51.456;8.844;2024-02-28T07:00:08;97.70;;;45.85;;
23304;SDS011;11821;51.456;8.844;2024-02-28T07:02:35;92.75;;;46.85;;
23304;SDS011;11821;51.456;8.844;2024-02-28T07:05:02;94.93;;;48.17;;
23304;SDS011;11821;51.456;8.844;2024-02-28T07:07:33;99.00;;;49.35;;
23304;SDS011;11821;51.456;8.844;2024-02-28T07:09:59;87.68;;;44.85;;
23304;SDS011;11821;51.456;8.844;2024-02-28T07:12:26;96.47;;;47.78;;
23304;SDS011;11821;51.456;8.844;2024-02-28T07:14:52;101.22;;;48.25;;
23304;SDS011;11821;51.456;8.844;2024-02-28T07:17:20;90.32;;;43.90;;
23304;SDS011;11821;51.456;8.844;2024-02-28T07:19:47;83.85;;;43.45;;
23304;SDS011;11821;51.456;8.844;2024-02-28T07:22:14;92.95;;;46.55;;
23304;SDS011;11821;51.456;8.844;2024-02-28T07:24:40;88.45;;;44.30;;
23304;SDS011;11821;51.456;8.844;2024-02-28T07:27:07;94.13;;;46.33;;
23304;SDS011;11821;51.456;8.844;2024-02-28T07:29:34;89.93;;;45.47;;
23304;SDS011;11821;51.456;8.844;2024-02-28T07:32:00;83.15;;;45.30;;
23304;SDS011;11821;51.456;8.844;2024-02-28T07:34:28;85.88;;;46.03;;
23304;SDS011;11821;51.456;8.844;2024-02-28T07:36:54;96.97;;;47.63;;
23304;SDS011;11821;51.456;8.844;2024-02-28T07:39:21;85.57;;;44.63;;
23304;SDS011;11821;51.456;8.844;2024-02-28T07:41:49;83.78;;;45.00;;
23304;SDS011;11821;51.456;8.844;2024-02-28T07:44:16;47.72;;;28.35;;
23304;SDS011;11821;51.456;8.844;2024-02-28T07:46:43;79.03;;;41.97;;
23304;SDS011;11821;51.456;8.844;2024-02-28T07:49:09;69.03;;;33.58;;
23304;SDS011;11821;51.456;8.844;2024-02-28T07:51:36;74.70;;;42.40;;
23304;SDS011;11821;51.456;8.844;2024-02-28T07:54:03;67.65;;;38.25;;
23304;SDS011;11821;51.456;8.844;2024-02-28T07:56:29;71.82;;;39.22;;
23304;SDS011;11821;51.456;8.844;2024-02-28T07:58:56;80.38;;;44.47;;
23304;SDS011;11821;51.456;8.844;2024-02-28T08:01:22;83.80;;;44.78;;
23304;SDS011;11821;51.456;8.844;2024-02-28T08:03:49;53.22;;;30.35;;
23304;SDS011;11821;51.456;8.844;2024-02-28T08:06:15;71.13;;;37.00;;
23304;SDS011;11821;51.456;8.844;2024-02-28T08:08:45;68.70;;;39.40;;
23304;SDS011;11821;51.456;8.844;2024-02-28T08:11:12;63.83;;;39.25;;
23304;SDS011;11821;51.456;8.844;2024-02-28T08:13:39;72.22;;;41.08;;
23304;SDS011;11821;51.456;8.844;2024-02-28T08:16:05;63.80;;;37.15;;
23304;SDS011;11821;51.456;8.844;2024-02-28T08:18:34;62.38;;;39.20;;
23304;SDS011;11821;51.456;8.844;2024-02-28T08:21:01;68.72;;;39.92;;
23304;SDS011;11821;51.456;8.844;2024-02-28T08:23:31;66.22;;;39.95;;
23304;SDS011;11821;51.456;8.844;2024-02-28T08:25:58;42.67;;;25.52;;
23304;SDS011;11821;51.456;8.844;2024-02-28T08:28:24;55.47;;;32.17;;
23304;SDS011;11821;51.456;8.844;2024-02-28T08:30:51;26.67;;;16.33;;
23304;SDS011;11821;51.456;8.844;2024-02-28T08:33:17;28.88;;;17.60;;
23304;SDS011;11821;51.456;8.844;2024-02-28T08:35:44;29.98;;;17.02;;
23304;SDS011;11821;51.456;8.844;2024-02-28T08:38:10;28.92;;;18.67;;
23304;SDS011;11821;51.456;8.844;2024-02-28T08:40:37;25.88;;;14.98;;
23304;SDS011;11821;51.456;8.844;2024-02-28T08:43:04;21.23;;;12.95;;
23304;SDS011;11821;51.456;8.844;2024-02-28T08:45:30;28.02;;;17.27;;
23304;SDS011;11821;51.456;8.844;2024-02-28T08:47:57;31.50;;;18.85;;
23304;SDS011;11821;51.456;8.844;2024-02-28T08:50:27;25.08;;;17.40;;
23304;SDS011;11821;51.456;8.844;2024-02-28T08:52:54;28.23;;;19.20;;
23304;SDS011;11821;51.456;8.844;2024-02-28T08:55:21;32.10;;;19.52;;
23304;SDS011;11821;51.456;8.844;2024-02-28T08:57:48;31.00;;;19.60;;
23304;SDS011;11821;51.456;8.844;2024-02-28T09:00:15;33.30;;;23.92;;
23304;SDS011;11821;51.456;8.844;2024-02-28T09:02:43;30.25;;;19.60;;
23304;SDS011;11821;51.456;8.844;2024-02-28T09:05:10;26.95;;;17.80;;
23304;SDS011;11821;51.456;8.844;2024-02-28T09:07:36;26.65;;;18.30;;
23304;SDS011;11821;51.456;8.844;2024-02-28T09:10:03;26.50;;;16.75;;
23304;SDS011;11821;51.456;8.844;2024-02-28T09:12:31;29.00;;;17.65;;
23304;SDS011;11821;51.456;8.844;2024-02-28T09:14:57;24.60;;;16.58;;
23304;SDS011;11821;51.456;8.844;2024-02-28T09:17:24;27.77;;;16.65;;
23304;SDS011;11821;51.456;8.844;2024-02-28T09:19:52;29.55;;;20.55;;
23304;SDS011;11821;51.456;8.844;2024-02-28T09:22:20;57.55;;;38.17;;
23304;SDS011;11821;51.456;8.844;2024-02-28T09:24:46;61.47;;;39.08;;
23304;SDS011;11821;51.456;8.844;2024-02-28T09:27:14;78.90;;;50.78;;
23304;SDS011;11821;51.456;8.844;2024-02-28T09:29:40;68.35;;;42.28;;
23304;SDS011;11821;51.456;8.844;2024-02-28T09:32:07;62.53;;;45.15;;
23304;SDS011;11821;51.456;8.844;2024-02-28T09:34:34;41.03;;;30.27;;
23304;SDS011;11821;51.456;8.844;2024-02-28T09:37:01;39.17;;;26.25;;
23304;SDS011;11821;51.456;8.844;2024-02-28T09:39:27;35.65;;;18.90;;
23304;SDS011;11821;51.456;8.844;2024-02-28T09:41:54;41.88;;;19.00;;
23304;SDS011;11821;51.456;8.844;2024-02-28T09:44:21;36.35;;;22.23;;
23304;SDS011;11821;51.456;8.844;2024-02-28T09:46:49;57.97;;;38.97;;
23304;SDS011;11821;51.456;8.844;2024-02-28T09:49:17;51.70;;;35.35;;
23304;SDS011;11821;51.456;8.844;2024-02-28T09:51:44;47.53;;;33.25;;
23304;SDS011;11821;51.456;8.844;2024-02-28T09:54:15;68.50;;;49.63;;
23304;SDS011;11821;51.456;8.844;2024-02-28T09:56:41;60.17;;;40.88;;
23304;SDS011;11821;51.456;8.844;2024-02-28T09:59:08;52.50;;;37.90;;
23304;SDS011;11821;51.456;8.844;2024-02-28T10:01:40;47.97;;;29.17;;
23304;SDS011;11821;51.456;8.844;2024-02-28T10:04:08;61.58;;;38.15;;
23304;SDS011;11821;51.456;8.844;2024-02-28T10:06:42;44.33;;;34.25;;
23304;SDS011;11821;51.456;8.844;2024-02-28T10:09:08;55.05;;;43.38;;
23304;SDS011;11821;51.456;8.844;2024-02-28T10:11:36;80.53;;;59.03;;
23304;SDS011;11821;51.456;8.844;2024-02-28T10:14:02;83.22;;;60.63;;
23304;SDS011;11821;51.456;8.844;2024-02-28T10:16:29;31.70;;;19.67;;
23304;SDS011;11821;51.456;8.844;2024-02-28T10:18:55;33.03;;;18.15;;
23304;SDS011;11821;51.456;8.844;2024-02-28T10:21:22;36.58;;;18.52;;
23304;SDS011;11821;51.456;8.844;2024-02-28T10:23:51;33.33;;;21.75;;
23304;SDS011;11821;51.456;8.844;2024-02-28T10:26:18;35.08;;;21.52;;
23304;SDS011;11821;51.456;8.844;2024-02-28T10:28:44;37.20;;;21.17;;
23304;SDS011;11821;51.456;8.844;2024-02-28T10:31:11;31.83;;;19.80;;
23304;SDS011;11821;51.456;8.844;2024-02-28T10:33:37;41.45;;;21.38;;
23304;SDS011;11821;51.456;8.844;2024-02-28T10:36:04;36.85;;;22.38;;
23304;SDS011;11821;51.456;8.844;2024-02-28T10:38:31;27.88;;;15.32;;
23304;SDS011;11821;51.456;8.844;2024-02-28T10:41:03;34.42;;;16.55;;
23304;SDS011;11821;51.456;8.844;2024-02-28T10:43:30;30.63;;;16.88;;
23304;SDS011;11821;51.456;8.844;2024-02-28T10:46:00;34.58;;;17.25;;
23304;SDS011;11821;51.456;8.844;2024-02-28T10:48:27;27.58;;;14.98;;
23304;SDS011;11821;51.456;8.844;2024-02-28T10:50:53;30.17;;;16.15;;
23304;SDS011;11821;51.456;8.844;2024-02-28T10:53:21;31.58;;;16.65;;
23304;SDS011;11821;51.456;8.844;2024-02-28T10:55:49;30.80;;;16.20;;
23304;SDS011;11821;51.456;8.844;2024-02-28T10:58:16;34.90;;;18.83;;
23304;SDS011;11821;51.456;8.844;2024-02-28T11:00:43;31.98;;;18.13;;
23304;SDS011;11821;51.456;8.844;2024-02-28T11:03:11;38.05;;;16.02;;
23304;SDS011;11821;51.456;8.844;2024-02-28T11:05:39;30.92;;;15.18;;
23304;SDS011;11821;51.456;8.844;2024-02-28T11:08:22;25.15;;;14.05;;
23304;SDS011;11821;51.456;8.844;2024-02-28T11:10:59;30.65;;;16.02;;
23304;SDS011;11821;51.456;8.844;2024-02-28T11:13:29;34.40;;;18.08;;
23304;SDS011;11821;51.456;8.844;2024-02-28T11:16:08;27.75;;;16.00;;
23304;SDS011;11821;51.456;8.844;2024-02-28T11:18:34;34.85;;;16.80;;
23304;SDS011;11821;51.456;8.844;2024-02-28T11:21:01;29.23;;;15.60;;
23304;SDS011;11821;51.456;8.844;2024-02-28T11:23:35;28.67;;;15.30;;
23304;SDS011;11821;51.456;8.844;2024-02-28T11:26:03;22.30;;;13.02;;
23304;SDS011;11821;51.456;8.844;2024-02-28T11:28:29;27.30;;;14.55;;
23304;SDS011;11821;51.456;8.844;2024-02-28T11:30:56;22.38;;;12.60;;
23304;SDS011;11821;51.456;8.844;2024-02-28T11:33:22;23.80;;;13.65;;
23304;SDS011;11821;51.456;8.844;2024-02-28T11:35:58;20.58;;;12.60;;
23304;SDS011;11821;51.456;8.844;2024-02-28T11:38:25;17.70;;;12.90;;
23304;SDS011;11821;51.456;8.844;2024-02-28T11:40:52;20.95;;;12.10;;
23304;SDS011;11821;51.456;8.844;2024-02-28T11:43:19;20.50;;;10.13;;
23304;SDS011;11821;51.456;8.844;2024-02-28T11:45:45;19.25;;;11.70;;
23304;SDS011;11821;51.456;8.844;2024-02-28T11:48:15;22.58;;;11.38;;
23304;SDS011;11821;51.456;8.844;2024-02-28T11:50:42;21.50;;;11.98;;
23304;SDS011;11821;51.456;8.844;2024-02-28T11:53:09;20.50;;;11.75;;
23304;SDS011;11821;51.456;8.844;2024-02-28T11:55:35;21.20;;;11.60;;
23304;SDS011;11821;51.456;8.844;2024-02-28T11:58:07;19.52;;;11.75;;
23304;SDS011;11821;51.456;8.844;2024-02-28T12:00:45;11.38;;;7.90;;
23304;SDS011;11821;51.456;8.844;2024-02-28T12:03:12;16.55;;;9.88;;
23304;SDS011;11821;51.456;8.844;2024-02-28T12:05:38;13.95;;;8.27;;
23304;SDS011;11821;51.456;8.844;2024-02-28T12:08:05;14.45;;;7.97;;
23304;SDS011;11821;51.456;8.844;2024-02-28T12:10:32;11.10;;;7.28;;
23304;SDS011;11821;51.456;8.844;2024-02-28T12:12:59;12.43;;;7.72;;
23304;SDS011;11821;51.456;8.844;2024-02-28T12:15:25;10.60;;;6.85;;
23304;SDS011;11821;51.456;8.844;2024-02-28T12:17:52;12.50;;;8.05;;
23304;SDS011;11821;51.456;8.844;2024-02-28T12:20:18;13.20;;;8.05;;
23304;SDS011;11821;51.456;8.844;2024-02-28T12:22:45;13.55;;;8.65;;
23304;SDS011;11821;51.456;8.844;2024-02-28T12:25:12;14.18;;;9.63;;
23304;SDS011;11821;51.456;8.844;2024-02-28T12:27:38;12.65;;;8.65;;
23304;SDS011;11821;51.456;8.844;2024-02-28T12:30:05;11.70;;;7.70;;
23304;SDS011;11821;51.456;8.844;2024-02-28T12:32:32;12.73;;;8.35;;
23304;SDS011;11821;51.456;8.844;2024-02-28T12:34:58;15.75;;;9.05;;
23304;SDS011;11821;51.456;8.844;2024-02-28T12:37:25;16.50;;;9.07;;
23304;SDS011;11821;51.456;8.844;2024-02-28T12:39:53;16.13;;;9.60;;
23304;SDS011;11821;51.456;8.844;2024-02-28T12:42:20;14.93;;;10.02;;
23304;SDS011;11821;51.456;8.844;2024-02-28T12:44:46;17.58;;;10.10;;
23304;SDS011;11821;51.456;8.844;2024-02-28T12:47:13;17.15;;;9.32;;
23304;SDS011;11821;51.456;8.844;2024-02-28T12:49:40;18.60;;;10.00;;
23304;SDS011;11821;51.456;8.844;2024-02-28T12:52:06;17.83;;;10.80;;
23304;SDS011;11821;51.456;8.844;2024-02-28T12:54:33;18.13;;;11.00;;
23304;SDS011;11821;51.456;8.844;2024-02-28T12:56:59;18.88;;;10.88;;
23304;SDS011;11821;51.456;8.844;2024-02-28T12:59:28;15.88;;;8.07;;
23304;SDS011;11821;51.456;8.844;2024-02-28T13:01:55;17.85;;;9.38;;
23304;SDS011;11821;51.456;8.844;2024-02-28T13:04:21;15.98;;;9.57;;
23304;SDS011;11821;51.456;8.844;2024-02-28T13:06:48;20.77;;;11.55;;
23304;SDS011;11821;51.456;8.844;2024-02-28T13:09:15;20.73;;;10.23;;
23304;SDS011;11821;51.456;8.844;2024-02-28T13:11:41;16.80;;;10.60;;
23304;SDS011;11821;51.456;8.844;2024-02-28T13:14:08;14.07;;;9.10;;
23304;SDS011;11821;51.456;8.844;2024-02-28T13:16:36;13.45;;;8.63;;
23304;SDS011;11821;51.456;8.844;2024-02-28T13:19:03;12.38;;;7.22;;
23304;SDS011;11821;51.456;8.844;2024-02-28T13:21:30;13.20;;;8.32;;
23304;SDS011;11821;51.456;8.844;2024-02-28T13:24:00;10.88;;;7.97;;
23304;SDS011;11821;51.456;8.844;2024-02-28T13:26:27;10.70;;;7.18;;
23304;SDS011;11821;51.456;8.844;2024-02-28T13:28:53;14.65;;;9.35;;
23304;SDS011;11821;51.456;8.844;2024-02-28T13:31:20;13.13;;;8.35;;
23304;SDS011;11821;51.456;8.844;2024-02-28T13:33:47;11.77;;;7.72;;
23304;SDS011;11821;51.456;8.844;2024-02-28T13:36:16;22.75;;;12.05;;
23304;SDS011;11821;51.456;8.844;2024-02-28T13:38:42;28.38;;;16.23;;
23304;SDS011;11821;51.456;8.844;2024-02-28T13:41:09;28.15;;;15.27;;
23304;SDS011;11821;51.456;8.844;2024-02-28T13:43:36;28.17;;;15.95;;
23304;SDS011;11821;51.456;8.844;2024-02-28T13:46:03;32.05;;;16.85;;
23304;SDS011;11821;51.456;8.844;2024-02-28T13:48:29;26.67;;;15.88;;
23304;SDS011;11821;51.456;8.844;2024-02-28T13:50:57;26.90;;;16.10;;
23304;SDS011;11821;51.456;8.844;2024-02-28T13:53:24;30.60;;;17.23;;
23304;SDS011;11821;51.456;8.844;2024-02-28T13:55:51;29.20;;;16.65;;
23304;SDS011;11821;51.456;8.844;2024-02-28T13:58:17;35.25;;;16.55;;
23304;SDS011;11821;51.456;8.844;2024-02-28T14:00:44;27.65;;;15.50;;
23304;SDS011;11821;51.456;8.844;2024-02-28T14:03:12;33.42;;;16.95;;
23304;SDS011;11821;51.456;8.844;2024-02-28T14:05:39;28.40;;;16.48;;
23304;SDS011;11821;51.456;8.844;2024-02-28T14:08:06;30.08;;;16.48;;
23304;SDS011;11821;51.456;8.844;2024-02-28T14:10:34;30.05;;;16.02;;
23304;SDS011;11821;51.456;8.844;2024-02-28T14:13:00;29.40;;;16.48;;
23304;SDS011;11821;51.456;8.844;2024-02-28T14:15:28;29.30;;;16.73;;
23304;SDS011;11821;51.456;8.844;2024-02-28T14:17:55;31.65;;;16.67;;
23304;SDS011;11821;51.456;8.844;2024-02-28T14:20:21;29.95;;;16.48;;
23304;SDS011;11821;51.456;8.844;2024-02-28T14:22:48;29.75;;;14.65;;
23304;SDS011;11821;51.456;8.844;2024-02-28T14:25:15;30.90;;;16.13;;